sensor_id;sensor_type;location;lat;lon;timestamp;temperature;humidity
49413;DHT22;35493;50.276;9.372;2022-09-09T00:01:33;16.70;78.50
49413;DHT22;35493;50.276;9.372;2022-09-09T00:04:05;16.80;78.60
49413;DHT22;35493;50.276;9.372;2022-09-09T00:06:45;16.70;78.80
49413;DHT22;35493;50.276;9.372;2022-09-09T00:09:16;16.70;78.90
49413;DHT22;35493;50.276;9.372;2022-09-09T00:11:47;16.80;78.90
49413;DHT22;35493;50.276;9.372;2022-09-09T00:14:18;16.80;78.90
49413;DHT22;35493;50.276;9.372;2022-09-09T00:16:49;16.90;79.00
49413;DHT22;35493;50.276;9.372;2022-09-09T00:19:19;16.80;79.10
49413;DHT22;35493;50.276;9.372;2022-09-09T00:21:48;16.80;79.10
49413;DHT22;35493;50.276;9.372;2022-09-09T00:24:19;16.80;79.10
49413;DHT22;35493;50.276;9.372;2022-09-09T00:26:48;16.90;79.10
49413;DHT22;35493;50.276;9.372;2022-09-09T00:29:22;16.90;79.20
49413;DHT22;35493;50.276;9.372;2022-09-09T00:31:53;16.90;79.10
49413;DHT22;35493;50.276;9.372;2022-09-09T00:34:22;16.90;79.10
49413;DHT22;35493;50.276;9.372;2022-09-09T00:36:50;16.90;79.10
49413;DHT22;35493;50.276;9.372;2022-09-09T00:39:21;16.90;79.20
49413;DHT22;35493;50.276;9.372;2022-09-09T00:42:02;16.90;79.20
49413;DHT22;35493;50.276;9.372;2022-09-09T00:44:36;16.80;79.20
49413;DHT22;35493;50.276;9.372;2022-09-09T00:47:09;16.80;79.30
49413;DHT22;35493;50.276;9.372;2022-09-09T00:49:41;16.80;79.40
49413;DHT22;35493;50.276;9.372;2022-09-09T00:52:16;16.80;79.40
49413;DHT22;35493;50.276;9.372;2022-09-09T00:54:45;16.70;79.50
49413;DHT22;35493;50.276;9.372;2022-09-09T00:57:25;16.80;79.50
49413;DHT22;35493;50.276;9.372;2022-09-09T00:59:55;16.80;79.50
49413;DHT22;35493;50.276;9.372;2022-09-09T01:02:27;16.70;79.60
49413;DHT22;35493;50.276;9.372;2022-09-09T01:05:05;16.70;79.70
49413;DHT22;35493;50.276;9.372;2022-09-09T01:07:35;16.70;79.90
49413;DHT22;35493;50.276;9.372;2022-09-09T01:10:03;16.70;79.80
49413;DHT22;35493;50.276;9.372;2022-09-09T01:12:38;16.80;79.90
49413;DHT22;35493;50.276;9.372;2022-09-09T01:15:10;16.80;79.90
49413;DHT22;35493;50.276;9.372;2022-09-09T01:17:49;16.70;79.90
49413;DHT22;35493;50.276;9.372;2022-09-09T01:20:18;16.80;79.80
49413;DHT22;35493;50.276;9.372;2022-09-09T01:23:00;16.70;79.90
49413;DHT22;35493;50.276;9.372;2022-09-09T01:28:26;16.60;80.10
49413;DHT22;35493;50.276;9.372;2022-09-09T01:31:00;16.70;80.00
49413;DHT22;35493;50.276;9.372;2022-09-09T01:33:34;16.70;80.00
49413;DHT22;35493;50.276;9.372;2022-09-09T01:36:02;16.60;79.90
49413;DHT22;35493;50.276;9.372;2022-09-09T01:38:37;16.60;80.00
49413;DHT22;35493;50.276;9.372;2022-09-09T01:41:04;16.60;80.10
49413;DHT22;35493;50.276;9.372;2022-09-09T01:43:43;16.60;80.00
49413;DHT22;35493;50.276;9.372;2022-09-09T01:46:09;16.60;80.10
49413;DHT22;35493;50.276;9.372;2022-09-09T01:48:37;16.60;80.10
49413;DHT22;35493;50.276;9.372;2022-09-09T01:51:08;16.50;80.10
49413;DHT22;35493;50.276;9.372;2022-09-09T01:53:35;16.50;80.30
49413;DHT22;35493;50.276;9.372;2022-09-09T01:56:07;16.50;80.40
49413;DHT22;35493;50.276;9.372;2022-09-09T01:58:46;16.60;80.40
49413;DHT22;35493;50.276;9.372;2022-09-09T02:01:17;16.50;80.40
49413;DHT22;35493;50.276;9.372;2022-09-09T02:03:51;16.60;80.40
49413;DHT22;35493;50.276;9.372;2022-09-09T02:06:22;16.50;80.30
49413;DHT22;35493;50.276;9.372;2022-09-09T02:09:04;16.50;80.30
49413;DHT22;35493;50.276;9.372;2022-09-09T02:11:33;16.40;80.30
49413;DHT22;35493;50.276;9.372;2022-09-09T02:14:12;16.40;80.20
49413;DHT22;35493;50.276;9.372;2022-09-09T02:16:44;16.40;80.10
49413;DHT22;35493;50.276;9.372;2022-09-09T02:19:14;16.40;80.10
49413;DHT22;35493;50.276;9.372;2022-09-09T02:22:01;16.30;80.20
49413;DHT22;35493;50.276;9.372;2022-09-09T02:24:32;16.30;80.20
49413;DHT22;35493;50.276;9.372;2022-09-09T02:27:17;16.30;80.20
49413;DHT22;35493;50.276;9.372;2022-09-09T02:29:47;16.30;80.20
49413;DHT22;35493;50.276;9.372;2022-09-09T02:32:21;16.20;80.30
49413;DHT22;35493;50.276;9.372;2022-09-09T02:34:50;16.20;80.30
49413;DHT22;35493;50.276;9.372;2022-09-09T02:37:20;16.20;80.30
49413;DHT22;35493;50.276;9.372;2022-09-09T02:39:52;16.20;80.30
49413;DHT22;35493;50.276;9.372;2022-09-09T02:42:23;16.20;80.30
49413;DHT22;35493;50.276;9.372;2022-09-09T02:44:53;16.10;80.30
49413;DHT22;35493;50.276;9.372;2022-09-09T02:47:25;16.10;80.30
49413;DHT22;35493;50.276;9.372;2022-09-09T02:50:02;16.10;80.30
49413;DHT22;35493;50.276;9.372;2022-09-09T02:52:32;16.10;80.40
49413;DHT22;35493;50.276;9.372;2022-09-09T02:55:04;16.10;80.60
49413;DHT22;35493;50.276;9.372;2022-09-09T02:57:34;16.00;80.60
49413;DHT22;35493;50.276;9.372;2022-09-09T03:00:05;16.00;80.80
49413;DHT22;35493;50.276;9.372;2022-09-09T03:02:33;16.00;80.80
49413;DHT22;35493;50.276;9.372;2022-09-09T03:05:05;16.00;80.70
49413;DHT22;35493;50.276;9.372;2022-09-09T03:07:32;16.00;80.70
49413;DHT22;35493;50.276;9.372;2022-09-09T03:10:01;16.00;80.70
49413;DHT22;35493;50.276;9.372;2022-09-09T03:12:28;16.00;80.60
49413;DHT22;35493;50.276;9.372;2022-09-09T03:15:00;15.90;80.60
49413;DHT22;35493;50.276;9.372;2022-09-09T03:17:31;15.90;80.70
49413;DHT22;35493;50.276;9.372;2022-09-09T03:19:59;15.90;80.80
49413;DHT22;35493;50.276;9.372;2022-09-09T03:22:29;16.00;80.80
49413;DHT22;35493;50.276;9.372;2022-09-09T03:24:59;16.00;80.70
49413;DHT22;35493;50.276;9.372;2022-09-09T03:27:27;16.00;80.80
49413;DHT22;35493;50.276;9.372;2022-09-09T03:29:54;15.90;81.00
49413;DHT22;35493;50.276;9.372;2022-09-09T03:32:24;15.90;81.20
49413;DHT22;35493;50.276;9.372;2022-09-09T03:34:56;16.00;81.20
49413;DHT22;35493;50.276;9.372;2022-09-09T03:37:24;16.00;81.20
49413;DHT22;35493;50.276;9.372;2022-09-09T03:39:52;16.00;81.30
49413;DHT22;35493;50.276;9.372;2022-09-09T03:42:23;16.00;81.20
49413;DHT22;35493;50.276;9.372;2022-09-09T03:44:53;16.00;81.30
49413;DHT22;35493;50.276;9.372;2022-09-09T03:47:24;16.10;81.30
49413;DHT22;35493;50.276;9.372;2022-09-09T03:50:05;16.00;81.30
49413;DHT22;35493;50.276;9.372;2022-09-09T03:52:36;16.10;81.30
49413;DHT22;35493;50.276;9.372;2022-09-09T03:55:05;16.00;81.30
49413;DHT22;35493;50.276;9.372;2022-09-09T03:57:34;16.00;81.50
49413;DHT22;35493;50.276;9.372;2022-09-09T04:00:04;16.00;81.40
49413;DHT22;35493;50.276;9.372;2022-09-09T04:02:41;16.00;81.40
49413;DHT22;35493;50.276;9.372;2022-09-09T04:05:12;16.00;81.50
49413;DHT22;35493;50.276;9.372;2022-09-09T04:07:42;16.00;81.30
49413;DHT22;35493;50.276;9.372;2022-09-09T04:10:12;16.00;81.30
49413;DHT22;35493;50.276;9.372;2022-09-09T04:12:42;16.00;81.40
49413;DHT22;35493;50.276;9.372;2022-09-09T04:15:09;15.90;81.60
49413;DHT22;35493;50.276;9.372;2022-09-09T04:17:40;15.90;81.70
49413;DHT22;35493;50.276;9.372;2022-09-09T04:20:10;15.90;81.50
49413;DHT22;35493;50.276;9.372;2022-09-09T04:22:39;16.00;81.40
49413;DHT22;35493;50.276;9.372;2022-09-09T04:25:06;15.90;81.50
49413;DHT22;35493;50.276;9.372;2022-09-09T04:27:34;15.90;81.50
49413;DHT22;35493;50.276;9.372;2022-09-09T04:30:02;15.80;81.50
49413;DHT22;35493;50.276;9.372;2022-09-09T04:32:32;15.80;81.40
49413;DHT22;35493;50.276;9.372;2022-09-09T04:34:59;15.90;81.30
49413;DHT22;35493;50.276;9.372;2022-09-09T04:37:27;15.90;81.30
49413;DHT22;35493;50.276;9.372;2022-09-09T04:40:00;15.90;81.30
49413;DHT22;35493;50.276;9.372;2022-09-09T04:42:29;15.80;81.30
49413;DHT22;35493;50.276;9.372;2022-09-09T04:44:57;15.80;81.20
49413;DHT22;35493;50.276;9.372;2022-09-09T04:47:23;15.70;81.20
49413;DHT22;35493;50.276;9.372;2022-09-09T04:49:52;15.70;81.20
49413;DHT22;35493;50.276;9.372;2022-09-09T04:52:22;15.70;81.20
49413;DHT22;35493;50.276;9.372;2022-09-09T04:54:48;15.70;81.20
49413;DHT22;35493;50.276;9.372;2022-09-09T04:57:19;15.70;81.20
49413;DHT22;35493;50.276;9.372;2022-09-09T04:59:46;15.70;81.30
49413;DHT22;35493;50.276;9.372;2022-09-09T05:02:14;15.60;81.30
49413;DHT22;35493;50.276;9.372;2022-09-09T05:04:40;15.70;81.30
49413;DHT22;35493;50.276;9.372;2022-09-09T05:07:08;15.70;81.30
49413;DHT22;35493;50.276;9.372;2022-09-09T05:09:35;15.70;81.40
49413;DHT22;35493;50.276;9.372;2022-09-09T05:12:03;15.70;81.40
49413;DHT22;35493;50.276;9.372;2022-09-09T05:14:37;15.70;81.60
49413;DHT22;35493;50.276;9.372;2022-09-09T05:17:07;15.70;81.60
49413;DHT22;35493;50.276;9.372;2022-09-09T05:19:37;15.70;81.70
49413;DHT22;35493;50.276;9.372;2022-09-09T05:22:04;15.70;81.80
49413;DHT22;35493;50.276;9.372;2022-09-09T05:24:39;15.70;81.80
49413;DHT22;35493;50.276;9.372;2022-09-09T05:27:06;15.70;81.70
49413;DHT22;35493;50.276;9.372;2022-09-09T05:29:38;15.70;81.70
49413;DHT22;35493;50.276;9.372;2022-09-09T05:32:07;15.70;81.70
49413;DHT22;35493;50.276;9.372;2022-09-09T05:34:37;15.70;81.60
49413;DHT22;35493;50.276;9.372;2022-09-09T05:37:06;15.80;81.50
49413;DHT22;35493;50.276;9.372;2022-09-09T05:39:34;15.90;81.40
49413;DHT22;35493;50.276;9.372;2022-09-09T05:42:04;15.90;81.50
49413;DHT22;35493;50.276;9.372;2022-09-09T05:44:36;15.90;81.50
49413;DHT22;35493;50.276;9.372;2022-09-09T05:47:05;16.00;81.40
49413;DHT22;35493;50.276;9.372;2022-09-09T05:49:34;16.00;81.30
49413;DHT22;35493;50.276;9.372;2022-09-09T05:52:02;16.00;81.40
49413;DHT22;35493;50.276;9.372;2022-09-09T05:54:31;16.00;81.50
49413;DHT22;35493;50.276;9.372;2022-09-09T05:56:58;16.00;81.60
49413;DHT22;35493;50.276;9.372;2022-09-09T05:59:25;16.00;81.50
49413;DHT22;35493;50.276;9.372;2022-09-09T06:01:55;16.00;81.60
49413;DHT22;35493;50.276;9.372;2022-09-09T06:04:34;16.10;81.60
49413;DHT22;35493;50.276;9.372;2022-09-09T06:07:03;16.10;81.50
49413;DHT22;35493;50.276;9.372;2022-09-09T06:09:31;16.10;81.50
49413;DHT22;35493;50.276;9.372;2022-09-09T06:11:58;16.20;81.50
49413;DHT22;35493;50.276;9.372;2022-09-09T06:14:33;16.20;81.60
49413;DHT22;35493;50.276;9.372;2022-09-09T06:17:01;16.20;81.50
49413;DHT22;35493;50.276;9.372;2022-09-09T06:19:29;16.30;81.50
49413;DHT22;35493;50.276;9.372;2022-09-09T06:21:59;16.30;81.60
49413;DHT22;35493;50.276;9.372;2022-09-09T06:24:33;16.40;81.50
49413;DHT22;35493;50.276;9.372;2022-09-09T06:27:01;16.50;81.30
49413;DHT22;35493;50.276;9.372;2022-09-09T06:29:34;16.50;81.40
49413;DHT22;35493;50.276;9.372;2022-09-09T06:32:02;16.50;81.50
49413;DHT22;35493;50.276;9.372;2022-09-09T06:34:33;16.50;81.40
49413;DHT22;35493;50.276;9.372;2022-09-09T06:37:05;16.50;81.50
49413;DHT22;35493;50.276;9.372;2022-09-09T06:39:42;16.50;81.50
49413;DHT22;35493;50.276;9.372;2022-09-09T06:42:12;16.60;81.70
49413;DHT22;35493;50.276;9.372;2022-09-09T06:44:43;16.60;81.70
49413;DHT22;35493;50.276;9.372;2022-09-09T06:47:23;16.60;81.40
49413;DHT22;35493;50.276;9.372;2022-09-09T06:49:55;16.60;81.50
49413;DHT22;35493;50.276;9.372;2022-09-09T06:52:24;16.60;81.60
49413;DHT22;35493;50.276;9.372;2022-09-09T06:54:53;16.60;81.70
49413;DHT22;35493;50.276;9.372;2022-09-09T06:57:20;16.60;81.70
49413;DHT22;35493;50.276;9.372;2022-09-09T06:59:48;16.60;81.80
49413;DHT22;35493;50.276;9.372;2022-09-09T07:02:18;16.60;81.10
49413;DHT22;35493;50.276;9.372;2022-09-09T07:04:47;16.70;81.50
49413;DHT22;35493;50.276;9.372;2022-09-09T07:07:17;16.70;81.90
49413;DHT22;35493;50.276;9.372;2022-09-09T07:09:47;16.70;81.80
49413;DHT22;35493;50.276;9.372;2022-09-09T07:12:15;16.80;81.90
49413;DHT22;35493;50.276;9.372;2022-09-09T07:14:49;16.90;81.60
49413;DHT22;35493;50.276;9.372;2022-09-09T07:17:16;17.00;81.30
49413;DHT22;35493;50.276;9.372;2022-09-09T07:19:43;17.10;81.20
49413;DHT22;35493;50.276;9.372;2022-09-09T07:22:10;17.20;81.00
49413;DHT22;35493;50.276;9.372;2022-09-09T07:24:39;17.30;80.80
49413;DHT22;35493;50.276;9.372;2022-09-09T07:27:07;17.30;80.60
49413;DHT22;35493;50.276;9.372;2022-09-09T07:29:36;17.30;80.50
49413;DHT22;35493;50.276;9.372;2022-09-09T07:32:06;17.40;80.40
49413;DHT22;35493;50.276;9.372;2022-09-09T07:34:39;17.50;80.20
49413;DHT22;35493;50.276;9.372;2022-09-09T07:37:07;17.60;80.10
49413;DHT22;35493;50.276;9.372;2022-09-09T07:39:41;17.60;80.00
49413;DHT22;35493;50.276;9.372;2022-09-09T07:42:11;17.70;79.70
49413;DHT22;35493;50.276;9.372;2022-09-09T07:44:39;17.90;79.60
49413;DHT22;35493;50.276;9.372;2022-09-09T07:47:13;18.10;79.60
49413;DHT22;35493;50.276;9.372;2022-09-09T07:49:44;18.30;79.20
49413;DHT22;35493;50.276;9.372;2022-09-09T07:52:15;18.50;78.50
49413;DHT22;35493;50.276;9.372;2022-09-09T07:54:44;18.70;77.60
49413;DHT22;35493;50.276;9.372;2022-09-09T07:57:14;18.90;77.00
49413;DHT22;35493;50.276;9.372;2022-09-09T07:59:42;19.00;76.60
49413;DHT22;35493;50.276;9.372;2022-09-09T08:02:08;19.10;76.10
49413;DHT22;35493;50.276;9.372;2022-09-09T08:04:36;19.10;75.50
49413;DHT22;35493;50.276;9.372;2022-09-09T08:07:03;19.30;74.60
49413;DHT22;35493;50.276;9.372;2022-09-09T08:09:37;19.50;74.20
49413;DHT22;35493;50.276;9.372;2022-09-09T08:12:17;19.70;73.40
49413;DHT22;35493;50.276;9.372;2022-09-09T08:14:44;20.00;72.60
49413;DHT22;35493;50.276;9.372;2022-09-09T08:17:15;20.10;72.50
49413;DHT22;35493;50.276;9.372;2022-09-09T08:19:43;20.10;71.80
49413;DHT22;35493;50.276;9.372;2022-09-09T08:22:14;20.10;71.40
49413;DHT22;35493;50.276;9.372;2022-09-09T08:24:43;20.10;71.50
49413;DHT22;35493;50.276;9.372;2022-09-09T08:27:12;20.00;71.60
49413;DHT22;35493;50.276;9.372;2022-09-09T08:29:41;19.90;71.60
49413;DHT22;35493;50.276;9.372;2022-09-09T08:32:08;19.80;71.40
49413;DHT22;35493;50.276;9.372;2022-09-09T08:34:38;19.80;71.30
49413;DHT22;35493;50.276;9.372;2022-09-09T08:37:15;19.80;71.50
49413;DHT22;35493;50.276;9.372;2022-09-09T08:39:43;19.70;71.80
49413;DHT22;35493;50.276;9.372;2022-09-09T08:42:17;19.80;71.60
49413;DHT22;35493;50.276;9.372;2022-09-09T08:44:56;19.80;71.70
49413;DHT22;35493;50.276;9.372;2022-09-09T08:47:28;19.80;71.70
49413;DHT22;35493;50.276;9.372;2022-09-09T08:50:01;19.90;71.50
49413;DHT22;35493;50.276;9.372;2022-09-09T08:52:31;19.90;71.30
49413;DHT22;35493;50.276;9.372;2022-09-09T08:55:12;19.90;71.20
49413;DHT22;35493;50.276;9.372;2022-09-09T08:57:42;19.90;71.30
49413;DHT22;35493;50.276;9.372;2022-09-09T09:00:13;19.80;71.60
49413;DHT22;35493;50.276;9.372;2022-09-09T09:02:45;19.80;71.70
49413;DHT22;35493;50.276;9.372;2022-09-09T09:05:17;19.70;71.90
49413;DHT22;35493;50.276;9.372;2022-09-09T09:07:53;19.70;72.00
49413;DHT22;35493;50.276;9.372;2022-09-09T09:10:31;19.70;72.10
49413;DHT22;35493;50.276;9.372;2022-09-09T09:13:03;19.80;72.00
49413;DHT22;35493;50.276;9.372;2022-09-09T09:15:37;19.80;72.10
49413;DHT22;35493;50.276;9.372;2022-09-09T09:18:05;19.90;72.00
49413;DHT22;35493;50.276;9.372;2022-09-09T09:20:34;20.00;71.90
49413;DHT22;35493;50.276;9.372;2022-09-09T09:23:09;20.10;71.80
49413;DHT22;35493;50.276;9.372;2022-09-09T09:25:41;20.10;71.90
49413;DHT22;35493;50.276;9.372;2022-09-09T09:28:10;20.00;71.80
49413;DHT22;35493;50.276;9.372;2022-09-09T09:30:48;20.20;71.60
49413;DHT22;35493;50.276;9.372;2022-09-09T09:33:20;20.30;71.40
49413;DHT22;35493;50.276;9.372;2022-09-09T09:35:50;20.40;71.00
49413;DHT22;35493;50.276;9.372;2022-09-09T09:38:21;20.30;70.60
49413;DHT22;35493;50.276;9.372;2022-09-09T09:40:55;20.30;70.10
49413;DHT22;35493;50.276;9.372;2022-09-09T09:43:24;20.20;70.30
49413;DHT22;35493;50.276;9.372;2022-09-09T09:45:54;20.20;70.20
49413;DHT22;35493;50.276;9.372;2022-09-09T09:48:24;20.10;70.40
49413;DHT22;35493;50.276;9.372;2022-09-09T09:50:52;20.10;70.40
49413;DHT22;35493;50.276;9.372;2022-09-09T09:53:22;20.10;70.40
49413;DHT22;35493;50.276;9.372;2022-09-09T09:55:57;20.10;70.60
49413;DHT22;35493;50.276;9.372;2022-09-09T09:58:25;20.10;70.40
49413;DHT22;35493;50.276;9.372;2022-09-09T10:00:54;20.00;70.50
49413;DHT22;35493;50.276;9.372;2022-09-09T10:03:26;20.10;70.30
49413;DHT22;35493;50.276;9.372;2022-09-09T10:05:54;20.10;70.20
49413;DHT22;35493;50.276;9.372;2022-09-09T10:08:25;20.10;70.20
49413;DHT22;35493;50.276;9.372;2022-09-09T10:10:59;20.10;70.10
49413;DHT22;35493;50.276;9.372;2022-09-09T10:13:29;20.10;69.70
49413;DHT22;35493;50.276;9.372;2022-09-09T10:16:08;20.20;69.60
49413;DHT22;35493;50.276;9.372;2022-09-09T10:18:44;20.30;69.50
49413;DHT22;35493;50.276;9.372;2022-09-09T10:21:19;20.30;69.30
49413;DHT22;35493;50.276;9.372;2022-09-09T10:23:52;20.40;69.20
49413;DHT22;35493;50.276;9.372;2022-09-09T10:26:27;20.50;69.20
49413;DHT22;35493;50.276;9.372;2022-09-09T10:29:02;20.60;69.20
49413;DHT22;35493;50.276;9.372;2022-09-09T10:31:36;20.60;69.30
49413;DHT22;35493;50.276;9.372;2022-09-09T10:34:08;20.60;69.20
49413;DHT22;35493;50.276;9.372;2022-09-09T10:36:42;20.60;69.00
49413;DHT22;35493;50.276;9.372;2022-09-09T10:39:13;20.60;68.80
49413;DHT22;35493;50.276;9.372;2022-09-09T10:41:44;20.80;68.70
49413;DHT22;35493;50.276;9.372;2022-09-09T10:49:58;21.10;67.60
49413;DHT22;35493;50.276;9.372;2022-09-09T10:52:31;21.30;66.30
49413;DHT22;35493;50.276;9.372;2022-09-09T10:55:03;21.40;63.00
49413;DHT22;35493;50.276;9.372;2022-09-09T10:57:35;21.50;61.70
49413;DHT22;35493;50.276;9.372;2022-09-09T11:00:03;21.60;61.10
49413;DHT22;35493;50.276;9.372;2022-09-09T11:02:33;21.60;60.80
49413;DHT22;35493;50.276;9.372;2022-09-09T11:05:03;21.70;60.30
49413;DHT22;35493;50.276;9.372;2022-09-09T11:07:34;21.90;60.40
49413;DHT22;35493;50.276;9.372;2022-09-09T11:10:02;21.80;59.50
49413;DHT22;35493;50.276;9.372;2022-09-09T11:12:32;21.80;59.50
49413;DHT22;35493;50.276;9.372;2022-09-09T11:15:06;21.80;59.40
49413;DHT22;35493;50.276;9.372;2022-09-09T11:17:36;21.90;59.60
49413;DHT22;35493;50.276;9.372;2022-09-09T11:20:12;22.00;59.40
49413;DHT22;35493;50.276;9.372;2022-09-09T11:22:42;22.10;59.20
49413;DHT22;35493;50.276;9.372;2022-09-09T11:25:14;22.30;58.80
49413;DHT22;35493;50.276;9.372;2022-09-09T11:27:43;22.50;58.50
49413;DHT22;35493;50.276;9.372;2022-09-09T11:30:17;22.60;58.40
49413;DHT22;35493;50.276;9.372;2022-09-09T11:35:38;22.70;58.20
49413;DHT22;35493;50.276;9.372;2022-09-09T11:38:11;22.60;57.90
49413;DHT22;35493;50.276;9.372;2022-09-09T11:40:43;22.80;57.80
49413;DHT22;35493;50.276;9.372;2022-09-09T11:43:11;22.90;57.40
49413;DHT22;35493;50.276;9.372;2022-09-09T11:45:40;22.90;57.30
49413;DHT22;35493;50.276;9.372;2022-09-09T11:48:21;22.80;57.10
49413;DHT22;35493;50.276;9.372;2022-09-09T11:50:59;22.80;57.20
49413;DHT22;35493;50.276;9.372;2022-09-09T11:53:31;22.90;56.70
49413;DHT22;35493;50.276;9.372;2022-09-09T11:56:05;22.80;56.90
49413;DHT22;35493;50.276;9.372;2022-09-09T11:58:40;22.60;56.90
49413;DHT22;35493;50.276;9.372;2022-09-09T12:04:05;22.60;57.50
49413;DHT22;35493;50.276;9.372;2022-09-09T12:06:42;22.50;57.60
49413;DHT22;35493;50.276;9.372;2022-09-09T12:09:15;22.50;57.70
49413;DHT22;35493;50.276;9.372;2022-09-09T12:11:44;22.70;57.60
49413;DHT22;35493;50.276;9.372;2022-09-09T12:14:19;22.90;57.20
49413;DHT22;35493;50.276;9.372;2022-09-09T12:16:48;23.00;57.00
49413;DHT22;35493;50.276;9.372;2022-09-09T12:19:19;23.20;56.60
49413;DHT22;35493;50.276;9.372;2022-09-09T12:21:51;23.30;55.90
49413;DHT22;35493;50.276;9.372;2022-09-09T12:24:23;23.30;56.10
49413;DHT22;35493;50.276;9.372;2022-09-09T12:26:54;23.40;55.20
49413;DHT22;35493;50.276;9.372;2022-09-09T12:29:24;23.30;54.80
49413;DHT22;35493;50.276;9.372;2022-09-09T12:31:54;23.10;56.30
49413;DHT22;35493;50.276;9.372;2022-09-09T12:34:28;22.80;56.00
49413;DHT22;35493;50.276;9.372;2022-09-09T12:37:06;22.70;55.60
49413;DHT22;35493;50.276;9.372;2022-09-09T12:39:35;22.80;56.00
49413;DHT22;35493;50.276;9.372;2022-09-09T12:42:14;22.80;53.80
49413;DHT22;35493;50.276;9.372;2022-09-09T12:44:54;22.70;53.50
49413;DHT22;35493;50.276;9.372;2022-09-09T12:47:21;22.70;54.10
49413;DHT22;35493;50.276;9.372;2022-09-09T12:49:51;22.60;54.10
49413;DHT22;35493;50.276;9.372;2022-09-09T12:52:24;22.60;54.50
49413;DHT22;35493;50.276;9.372;2022-09-09T12:54:58;22.70;54.00
49413;DHT22;35493;50.276;9.372;2022-09-09T12:57:26;22.60;53.90
49413;DHT22;35493;50.276;9.372;2022-09-09T13:00:08;22.60;54.10
49413;DHT22;35493;50.276;9.372;2022-09-09T13:02:48;22.60;54.30
49413;DHT22;35493;50.276;9.372;2022-09-09T13:05:19;22.60;54.50
49413;DHT22;35493;50.276;9.372;2022-09-09T13:07:52;22.70;54.20
49413;DHT22;35493;50.276;9.372;2022-09-09T13:10:30;22.60;53.90
49413;DHT22;35493;50.276;9.372;2022-09-09T13:12:59;22.60;54.00
49413;DHT22;35493;50.276;9.372;2022-09-09T13:15:30;22.60;54.20
49413;DHT22;35493;50.276;9.372;2022-09-09T13:17:58;22.60;53.90
49413;DHT22;35493;50.276;9.372;2022-09-09T13:20:26;22.60;53.90
49413;DHT22;35493;50.276;9.372;2022-09-09T13:22:55;22.50;54.00
49413;DHT22;35493;50.276;9.372;2022-09-09T13:25:24;22.50;54.20
49413;DHT22;35493;50.276;9.372;2022-09-09T13:27:57;22.50;54.70
49413;DHT22;35493;50.276;9.372;2022-09-09T13:30:25;22.50;54.60
49413;DHT22;35493;50.276;9.372;2022-09-09T13:32:59;22.60;54.30
49413;DHT22;35493;50.276;9.372;2022-09-09T13:35:28;22.60;54.60
49413;DHT22;35493;50.276;9.372;2022-09-09T13:37:56;22.60;54.80
49413;DHT22;35493;50.276;9.372;2022-09-09T13:40:24;22.60;55.20
49413;DHT22;35493;50.276;9.372;2022-09-09T13:42:51;22.60;55.30
49413;DHT22;35493;50.276;9.372;2022-09-09T13:45:19;22.60;55.40
49413;DHT22;35493;50.276;9.372;2022-09-09T13:47:47;22.60;55.70
49413;DHT22;35493;50.276;9.372;2022-09-09T13:50:19;22.50;56.10
49413;DHT22;35493;50.276;9.372;2022-09-09T13:52:47;22.30;56.80
49413;DHT22;35493;50.276;9.372;2022-09-09T13:55:15;22.20;57.00
49413;DHT22;35493;50.276;9.372;2022-09-09T13:57:50;22.20;57.60
49413;DHT22;35493;50.276;9.372;2022-09-09T14:00:17;22.10;57.90
49413;DHT22;35493;50.276;9.372;2022-09-09T14:02:44;22.10;58.50
49413;DHT22;35493;50.276;9.372;2022-09-09T14:05:15;21.90;59.30
49413;DHT22;35493;50.276;9.372;2022-09-09T14:07:46;21.70;60.00
49413;DHT22;35493;50.276;9.372;2022-09-09T14:10:13;21.60;61.30
49413;DHT22;35493;50.276;9.372;2022-09-09T14:12:41;21.50;63.20
49413;DHT22;35493;50.276;9.372;2022-09-09T14:15:09;21.30;64.10
49413;DHT22;35493;50.276;9.372;2022-09-09T14:17:40;21.10;65.00
49413;DHT22;35493;50.276;9.372;2022-09-09T14:20:07;21.00;65.60
49413;DHT22;35493;50.276;9.372;2022-09-09T14:22:37;20.90;66.50
49413;DHT22;35493;50.276;9.372;2022-09-09T14:25:06;20.90;67.10
49413;DHT22;35493;50.276;9.372;2022-09-09T14:27:33;21.00;67.60
49413;DHT22;35493;50.276;9.372;2022-09-09T14:30:03;20.90;68.10
49413;DHT22;35493;50.276;9.372;2022-09-09T14:32:31;21.00;68.70
49413;DHT22;35493;50.276;9.372;2022-09-09T14:34:58;21.10;68.80
49413;DHT22;35493;50.276;9.372;2022-09-09T14:37:25;21.10;69.00
49413;DHT22;35493;50.276;9.372;2022-09-09T14:39:54;21.20;68.70
49413;DHT22;35493;50.276;9.372;2022-09-09T14:42:21;21.30;68.90
49413;DHT22;35493;50.276;9.372;2022-09-09T14:44:50;21.30;68.70
49413;DHT22;35493;50.276;9.372;2022-09-09T14:47:18;21.30;68.90
49413;DHT22;35493;50.276;9.372;2022-09-09T14:49:46;21.30;69.00
49413;DHT22;35493;50.276;9.372;2022-09-09T14:52:15;21.20;69.00
49413;DHT22;35493;50.276;9.372;2022-09-09T14:54:43;21.20;69.50
49413;DHT22;35493;50.276;9.372;2022-09-09T14:57:12;21.10;69.90
49413;DHT22;35493;50.276;9.372;2022-09-09T14:59:39;21.10;70.10
49413;DHT22;35493;50.276;9.372;2022-09-09T15:02:07;21.10;70.10
49413;DHT22;35493;50.276;9.372;2022-09-09T15:04:38;21.10;70.20
49413;DHT22;35493;50.276;9.372;2022-09-09T15:07:06;21.10;70.10
49413;DHT22;35493;50.276;9.372;2022-09-09T15:09:34;21.20;69.90
49413;DHT22;35493;50.276;9.372;2022-09-09T15:12:02;21.20;69.70
49413;DHT22;35493;50.276;9.372;2022-09-09T15:14:30;21.20;69.80
49413;DHT22;35493;50.276;9.372;2022-09-09T15:16:56;21.30;69.10
49413;DHT22;35493;50.276;9.372;2022-09-09T15:19:23;21.20;68.80
49413;DHT22;35493;50.276;9.372;2022-09-09T15:21:53;21.30;68.40
49413;DHT22;35493;50.276;9.372;2022-09-09T15:24:21;21.30;68.10
49413;DHT22;35493;50.276;9.372;2022-09-09T15:26:48;21.30;68.00
49413;DHT22;35493;50.276;9.372;2022-09-09T15:29:15;21.30;67.90
49413;DHT22;35493;50.276;9.372;2022-09-09T15:31:41;21.30;67.50
49413;DHT22;35493;50.276;9.372;2022-09-09T15:34:09;21.30;67.00
49413;DHT22;35493;50.276;9.372;2022-09-09T15:36:37;21.30;66.30
49413;DHT22;35493;50.276;9.372;2022-09-09T15:39:06;21.30;64.60
49413;DHT22;35493;50.276;9.372;2022-09-09T15:41:34;21.30;63.80
49413;DHT22;35493;50.276;9.372;2022-09-09T15:44:05;21.10;63.20
49413;DHT22;35493;50.276;9.372;2022-09-09T15:46:33;21.10;63.50
49413;DHT22;35493;50.276;9.372;2022-09-09T15:49:06;21.10;63.60
49413;DHT22;35493;50.276;9.372;2022-09-09T15:51:34;21.00;63.70
49413;DHT22;35493;50.276;9.372;2022-09-09T15:54:03;20.90;63.90
49413;DHT22;35493;50.276;9.372;2022-09-09T15:56:31;20.80;64.10
49413;DHT22;35493;50.276;9.372;2022-09-09T15:59:02;20.80;64.30
49413;DHT22;35493;50.276;9.372;2022-09-09T16:01:30;20.80;64.50
49413;DHT22;35493;50.276;9.372;2022-09-09T16:03:57;20.80;64.60
49413;DHT22;35493;50.276;9.372;2022-09-09T16:06:24;20.80;64.50